TT Circuit Assen Helipad

NL-0048 · Drenthe, 荷兰

罗盘
风向 的 风向 的 风向 到 风向 190° 直升机
风: 6 kt, 2 beaufort
0 ft 1.000 2.000 3.000 4.000 5.000
VV 0
METAR EHGG 272355Z AUTO 19006KT 160V220 0900 R23/1400N FG VV000 02/02 Q1019

METAR TT Circuit Assen Helipad - NL-0048

TT Circuit Assen Helipad是,荷兰中的直升机场。 该机场位于纬度52,96013和经度6,52521。 这个机场没有ICAO代码,我们使用NL-0048作为参考。 机场在Amsterdam FIR中。

该航空气象观测是针对Groningen Airport Eelde在2024年2月28日 00:55, 当地时间进行的。

机场观察

风向为190°,速度为6 kt。 风向在160°和220°之间变化。

可见度为900 m。 跑道23的能见度为1.400 m 和 没有趋势。

垂直能见度为0 ft 没有观察到天花板。

当前天气为多雾路段。 温度为2 °C,阵风为-3 °C。 露点为2 °C,相对湿度为100%。 海平面上的气压为1019 hPa (QNH)。

白天

今天,太阳从07:23升起,在18:09降落。 这适用于TT Circuit Assen Helipad,世界夏令时可能有所不同。 当地时间与世界标准时间之间的时差为+1 小时。 当前,没有夏令时有效。

公司介绍

我们没有关于这个机场的公司信息。

体会

到Vliegles.nl去找飞行课程,跳伞和其他飞行体验。 浏览页面,了解TT Circuit Assen Helipad附近所有可用的活动。 你也可以使用搜索功能来寻找你所在地附近的特定飞行课程、跳伞或其他飞行体验。

警示语

垂直能见度为0 ft。
跑道23处的能见度为1.400 m 和 没有趋势。

乌云

0 ft VV 垂直能见度

温度 & 天气

天气 多雾路段
温度 2 °C
露点 2 °C
相对湿度 100%
风寒 -3 °C
Kp-index 1 (0-9)

白天

日出
07:26 (6:16)
中午
12:46
日落
18:06

小工具

你想在你的网站上有一个关于TT Circuit Assen Helipad的当前航空天气(METAR)的小部件吗?

显示HTML代码
?>